sensor_id;sensor_type;location;lat;lon;timestamp;pressure;altitude;pressure_sealevel;temperature;humidity
57048;BME280;42934;54.294;18.598;2023-11-21T00:01:44;100400.84;;;2.17;75.81
57048;BME280;42934;54.294;18.598;2023-11-21T00:04:13;100410.34;;;2.17;75.83
57048;BME280;42934;54.294;18.598;2023-11-21T00:06:43;100412.94;;;2.15;75.88
57048;BME280;42934;54.294;18.598;2023-11-21T00:09:14;100414.66;;;2.13;75.72
57048;BME280;42934;54.294;18.598;2023-11-21T00:11:45;100419.84;;;2.13;75.63
57048;BME280;42934;54.294;18.598;2023-11-21T00:14:16;100425.03;;;2.16;75.40
57048;BME280;42934;54.294;18.598;2023-11-21T00:16:45;100414.66;;;2.13;75.35
57048;BME280;42934;54.294;18.598;2023-11-21T00:19:14;100422.44;;;2.09;75.38
57048;BME280;42934;54.294;18.598;2023-11-21T00:21:44;100425.03;;;2.05;74.86
57048;BME280;42934;54.294;18.598;2023-11-21T00:24:13;100420.72;;;2.01;74.85
57048;BME280;42934;54.294;18.598;2023-11-21T00:26:42;100427.63;;;2.01;74.77
57048;BME280;42934;54.294;18.598;2023-11-21T00:29:12;100427.63;;;1.99;74.50
57048;BME280;42934;54.294;18.598;2023-11-21T00:31:42;100437.16;;;1.97;74.22
57048;BME280;42934;54.294;18.598;2023-11-21T00:34:12;100431.97;;;1.96;74.63
57048;BME280;42934;54.294;18.598;2023-11-21T00:36:42;100435.41;;;1.96;74.36
57048;BME280;42934;54.294;18.598;2023-11-21T00:39:11;100438.88;;;1.95;74.39
57048;BME280;42934;54.294;18.598;2023-11-21T00:41:40;100450.06;;;1.96;74.76
57048;BME280;42934;54.294;18.598;2023-11-21T00:44:09;100455.25;;;1.93;74.04
57048;BME280;42934;54.294;18.598;2023-11-21T00:46:39;100455.25;;;1.90;74.36
57048;BME280;42934;54.294;18.598;2023-11-21T00:49:10;100460.44;;;1.82;74.49
57048;BME280;42934;54.294;18.598;2023-11-21T00:51:39;100461.28;;;1.76;74.77
57048;BME280;42934;54.294;18.598;2023-11-21T00:54:08;100463.03;;;1.71;74.31
57048;BME280;42934;54.294;18.598;2023-11-21T00:56:39;100451.81;;;1.74;73.98
57048;BME280;42934;54.294;18.598;2023-11-21T00:59:08;100456.13;;;1.73;74.54
57048;BME280;42934;54.294;18.598;2023-11-21T01:01:38;100460.44;;;1.68;74.09
57048;BME280;42934;54.294;18.598;2023-11-21T01:04:09;100451.81;;;1.74;74.88
57048;BME280;42934;54.294;18.598;2023-11-21T01:06:39;100455.28;;;1.80;74.46
57048;BME280;42934;54.294;18.598;2023-11-21T01:09:09;100457.00;;;1.86;74.01
57048;BME280;42934;54.294;18.598;2023-11-21T01:11:38;100468.22;;;1.90;73.82
57048;BME280;42934;54.294;18.598;2023-11-21T01:14:08;100460.44;;;1.90;74.46
57048;BME280;42934;54.294;18.598;2023-11-21T01:16:38;100463.91;;;1.92;73.67
57048;BME280;42934;54.294;18.598;2023-11-21T01:19:08;100463.03;;;1.91;73.62
57048;BME280;42934;54.294;18.598;2023-11-21T01:21:38;100464.75;;;1.94;74.02
57048;BME280;42934;54.294;18.598;2023-11-21T01:24:07;100469.06;;;1.96;74.37
57048;BME280;42934;54.294;18.598;2023-11-21T01:26:37;100472.53;;;2.01;74.15
57048;BME280;42934;54.294;18.598;2023-11-21T01:29:06;100469.91;;;2.00;73.78
57048;BME280;42934;54.294;18.598;2023-11-21T01:31:35;100472.53;;;1.98;73.82
57048;BME280;42934;54.294;18.598;2023-11-21T01:34:04;100475.09;;;2.00;73.80
57048;BME280;42934;54.294;18.598;2023-11-21T01:36:35;100475.97;;;2.00;73.89
57048;BME280;42934;54.294;18.598;2023-11-21T01:39:04;100473.38;;;2.07;74.00
57048;BME280;42934;54.294;18.598;2023-11-21T01:41:36;100480.28;;;2.09;73.58
57048;BME280;42934;54.294;18.598;2023-11-21T01:44:05;100482.00;;;2.09;72.80
57048;BME280;42934;54.294;18.598;2023-11-21T01:46:37;100485.47;;;2.15;73.33
57048;BME280;42934;54.294;18.598;2023-11-21T01:49:07;100479.41;;;2.16;73.54
57048;BME280;42934;54.294;18.598;2023-11-21T01:51:39;100483.72;;;2.19;72.97
57048;BME280;42934;54.294;18.598;2023-11-21T01:54:09;100488.03;;;2.20;72.93
57048;BME280;42934;54.294;18.598;2023-11-21T01:56:46;100487.19;;;2.19;73.45
57048;BME280;42934;54.294;18.598;2023-11-21T01:59:19;100492.34;;;2.22;73.16
57048;BME280;42934;54.294;18.598;2023-11-21T02:01:49;100494.06;;;2.20;73.50
57048;BME280;42934;54.294;18.598;2023-11-21T02:04:19;100493.22;;;2.20;72.90
57048;BME280;42934;54.294;18.598;2023-11-21T02:06:50;100493.22;;;2.21;72.83
57048;BME280;42934;54.294;18.598;2023-11-21T02:09:25;100492.38;;;2.21;72.77
57048;BME280;42934;54.294;18.598;2023-11-21T02:11:55;100492.34;;;2.25;72.61
57048;BME280;42934;54.294;18.598;2023-11-21T02:14:26;100507.03;;;2.25;72.65
57048;BME280;42934;54.294;18.598;2023-11-21T02:16:56;100507.88;;;2.32;73.01
57048;BME280;42934;54.294;18.598;2023-11-21T02:19:25;100511.34;;;2.34;72.39
57048;BME280;42934;54.294;18.598;2023-11-21T02:21:57;100509.63;;;2.33;72.67
57048;BME280;42934;54.294;18.598;2023-11-21T02:24:29;100514.78;;;2.34;72.87
57048;BME280;42934;54.294;18.598;2023-11-21T02:26:59;100520.00;;;2.33;72.07
57048;BME280;42934;54.294;18.598;2023-11-21T02:29:28;100524.28;;;2.29;72.21
57048;BME280;42934;54.294;18.598;2023-11-21T02:31:58;100519.97;;;2.28;72.11
57048;BME280;42934;54.294;18.598;2023-11-21T02:34:27;100525.16;;;2.31;72.51
57048;BME280;42934;54.294;18.598;2023-11-21T02:36:56;100523.44;;;2.32;72.44
57048;BME280;42934;54.294;18.598;2023-11-21T02:39:25;100519.97;;;2.31;72.23
57048;BME280;42934;54.294;18.598;2023-11-21T02:41:56;100524.28;;;2.34;71.93
57048;BME280;42934;54.294;18.598;2023-11-21T02:44:25;100522.59;;;2.33;72.46
57048;BME280;42934;54.294;18.598;2023-11-21T02:46:54;100517.38;;;2.28;71.28
57048;BME280;42934;54.294;18.598;2023-11-21T02:49:25;100514.81;;;2.30;72.03
57048;BME280;42934;54.294;18.598;2023-11-21T02:51:56;100522.56;;;2.25;71.61
57048;BME280;42934;54.294;18.598;2023-11-21T02:54:25;100524.28;;;2.23;71.77
57048;BME280;42934;54.294;18.598;2023-11-21T02:56:56;100523.44;;;2.24;71.20
57048;BME280;42934;54.294;18.598;2023-11-21T02:59:26;100532.09;;;2.21;71.03
57048;BME280;42934;54.294;18.598;2023-11-21T03:01:55;100532.94;;;2.20;70.77
57048;BME280;42934;54.294;18.598;2023-11-21T03:04:24;100536.38;;;2.22;71.19
57048;BME280;42934;54.294;18.598;2023-11-21T03:06:54;100532.94;;;2.22;70.57
57048;BME280;42934;54.294;18.598;2023-11-21T03:09:23;100536.41;;;2.24;70.88
57048;BME280;42934;54.294;18.598;2023-11-21T03:11:53;100542.44;;;2.27;70.35
57048;BME280;42934;54.294;18.598;2023-11-21T03:14:23;100545.91;;;2.26;70.62
57048;BME280;42934;54.294;18.598;2023-11-21T03:16:53;100549.34;;;2.28;70.82
57048;BME280;42934;54.294;18.598;2023-11-21T03:19:22;100555.38;;;2.29;70.84
57048;BME280;42934;54.294;18.598;2023-11-21T03:21:51;100551.94;;;2.28;70.49
57048;BME280;42934;54.294;18.598;2023-11-21T03:24:21;100559.69;;;2.28;70.80
57048;BME280;42934;54.294;18.598;2023-11-21T03:26:50;100557.97;;;2.26;70.75
57048;BME280;42934;54.294;18.598;2023-11-21T03:29:19;100557.97;;;2.29;70.43
57048;BME280;42934;54.294;18.598;2023-11-21T03:31:50;100557.13;;;2.30;70.79
57048;BME280;42934;54.294;18.598;2023-11-21T03:34:24;100562.28;;;2.32;71.07
57048;BME280;42934;54.294;18.598;2023-11-21T03:36:55;100555.38;;;2.32;70.83
57048;BME280;42934;54.294;18.598;2023-11-21T03:39:24;100552.78;;;2.34;70.36
57048;BME280;42934;54.294;18.598;2023-11-21T03:41:54;100544.16;;;2.35;70.91
57048;BME280;42934;54.294;18.598;2023-11-21T03:44:23;100543.31;;;2.33;70.24
57048;BME280;42934;54.294;18.598;2023-11-21T03:46:54;100550.22;;;2.31;70.60
57048;BME280;42934;54.294;18.598;2023-11-21T03:49:24;100548.50;;;2.30;70.78
57048;BME280;42934;54.294;18.598;2023-11-21T03:51:53;100545.88;;;2.31;70.36
57048;BME280;42934;54.294;18.598;2023-11-21T03:54:22;100554.50;;;2.32;70.12
57048;BME280;42934;54.294;18.598;2023-11-21T03:56:51;100551.09;;;2.33;70.38
57048;BME280;42934;54.294;18.598;2023-11-21T03:59:21;100557.09;;;2.28;70.29
57048;BME280;42934;54.294;18.598;2023-11-21T04:01:52;100564.03;;;2.30;70.56
57048;BME280;42934;54.294;18.598;2023-11-21T04:04:25;100569.22;;;2.28;70.60
57048;BME280;42934;54.294;18.598;2023-11-21T04:06:54;100565.75;;;2.29;70.55
57048;BME280;42934;54.294;18.598;2023-11-21T04:09:24;100573.53;;;2.27;70.12
57048;BME280;42934;54.294;18.598;2023-11-21T04:11:53;100576.13;;;2.24;69.90
57048;BME280;42934;54.294;18.598;2023-11-21T04:14:23;100573.53;;;2.18;70.01
57048;BME280;42934;54.294;18.598;2023-11-21T04:16:53;100572.66;;;2.16;69.78
57048;BME280;42934;54.294;18.598;2023-11-21T04:19:24;100576.13;;;2.18;69.91
57048;BME280;42934;54.294;18.598;2023-11-21T04:21:53;100583.88;;;2.20;70.23
57048;BME280;42934;54.294;18.598;2023-11-21T04:24:22;100581.28;;;2.20;69.85
57048;BME280;42934;54.294;18.598;2023-11-21T04:26:51;100583.88;;;2.18;69.54
57048;BME280;42934;54.294;18.598;2023-11-21T04:29:21;100590.78;;;2.13;69.29
57048;BME280;42934;54.294;18.598;2023-11-21T04:31:50;100591.66;;;2.11;69.31
57048;BME280;42934;54.294;18.598;2023-11-21T04:34:19;100595.09;;;2.08;69.58
57048;BME280;42934;54.294;18.598;2023-11-21T04:36:50;100602.88;;;2.10;69.46
57048;BME280;42934;54.294;18.598;2023-11-21T04:39:19;100590.78;;;2.07;69.37
57048;BME280;42934;54.294;18.598;2023-11-21T04:41:49;100603.72;;;2.05;69.49
57048;BME280;42934;54.294;18.598;2023-11-21T04:44:18;100611.47;;;2.05;69.50
57048;BME280;42934;54.294;18.598;2023-11-21T04:46:48;100608.88;;;2.02;69.64
57048;BME280;42934;54.294;18.598;2023-11-21T04:49:17;100609.75;;;2.00;69.20
57048;BME280;42934;54.294;18.598;2023-11-21T04:51:46;100614.09;;;1.98;69.71
57048;BME280;42934;54.294;18.598;2023-11-21T04:54:17;100621.84;;;1.96;69.42
57048;BME280;42934;54.294;18.598;2023-11-21T04:56:46;100620.97;;;1.99;69.55
57048;BME280;42934;54.294;18.598;2023-11-21T04:59:15;100622.69;;;1.97;69.38
57048;BME280;42934;54.294;18.598;2023-11-21T05:01:44;100623.59;;;1.97;69.67
57048;BME280;42934;54.294;18.598;2023-11-21T05:04:14;100629.59;;;1.96;69.42
57048;BME280;42934;54.294;18.598;2023-11-21T05:06:43;100640.81;;;1.95;69.73
57048;BME280;42934;54.294;18.598;2023-11-21T05:09:12;100647.75;;;1.95;69.46
57048;BME280;42934;54.294;18.598;2023-11-21T05:11:44;100650.31;;;1.95;69.71
57048;BME280;42934;54.294;18.598;2023-11-21T05:14:13;100646.88;;;1.96;69.59
57048;BME280;42934;54.294;18.598;2023-11-21T05:16:42;100651.19;;;1.95;69.69
57048;BME280;42934;54.294;18.598;2023-11-21T05:19:11;100647.75;;;1.98;69.17
57048;BME280;42934;54.294;18.598;2023-11-21T05:21:41;100646.88;;;1.96;69.63
57048;BME280;42934;54.294;18.598;2023-11-21T05:24:10;100653.75;;;1.97;69.54
57048;BME280;42934;54.294;18.598;2023-11-21T05:26:39;100660.66;;;1.93;69.45
57048;BME280;42934;54.294;18.598;2023-11-21T05:29:09;100675.34;;;1.91;69.42
57048;BME280;42934;54.294;18.598;2023-11-21T05:31:39;100679.66;;;1.86;69.86
57048;BME280;42934;54.294;18.598;2023-11-21T05:34:08;100692.59;;;1.83;69.22
57048;BME280;42934;54.294;18.598;2023-11-21T05:36:37;100697.75;;;1.83;69.12
57048;BME280;42934;54.294;18.598;2023-11-21T05:39:06;100694.28;;;1.81;69.07
57048;BME280;42934;54.294;18.598;2023-11-21T05:41:36;100696.03;;;1.80;69.49
57048;BME280;42934;54.294;18.598;2023-11-21T05:44:05;100707.22;;;1.81;69.36
57048;BME280;42934;54.294;18.598;2023-11-21T05:46:35;100710.69;;;1.77;69.98
57048;BME280;42934;54.294;18.598;2023-11-21T05:49:05;100714.13;;;1.77;69.82
57048;BME280;42934;54.294;18.598;2023-11-21T05:51:36;100715.00;;;1.79;69.55
57048;BME280;42934;54.294;18.598;2023-11-21T05:54:05;100712.41;;;1.79;69.33
57048;BME280;42934;54.294;18.598;2023-11-21T05:56:36;100717.53;;;1.73;69.78
57048;BME280;42934;54.294;18.598;2023-11-21T05:59:05;100725.31;;;1.73;69.89
57048;BME280;42934;54.294;18.598;2023-11-21T06:01:36;100733.94;;;1.71;70.13
57048;BME280;42934;54.294;18.598;2023-11-21T06:04:06;100731.34;;;1.69;70.59
57048;BME280;42934;54.294;18.598;2023-11-21T06:06:36;100733.88;;;1.62;70.19
57048;BME280;42934;54.294;18.598;2023-11-21T06:09:05;100732.19;;;1.62;70.49
57048;BME280;42934;54.294;18.598;2023-11-21T06:11:37;100737.34;;;1.61;69.96
57048;BME280;42934;54.294;18.598;2023-11-21T06:14:05;100749.41;;;1.60;70.33
57048;BME280;42934;54.294;18.598;2023-11-21T06:16:37;100755.44;;;1.56;70.27
57048;BME280;42934;54.294;18.598;2023-11-21T06:19:08;100758.03;;;1.61;70.41
57048;BME280;42934;54.294;18.598;2023-11-21T06:21:38;100770.13;;;1.62;70.28
57048;BME280;42934;54.294;18.598;2023-11-21T06:24:07;100776.16;;;1.59;70.75
57048;BME280;42934;54.294;18.598;2023-11-21T06:26:37;100774.41;;;1.53;70.12
57048;BME280;42934;54.294;18.598;2023-11-21T06:29:06;100785.59;;;1.52;70.11
57048;BME280;42934;54.294;18.598;2023-11-21T06:31:36;100784.72;;;1.47;70.70
57048;BME280;42934;54.294;18.598;2023-11-21T06:34:06;100793.34;;;1.52;69.75
57048;BME280;42934;54.294;18.598;2023-11-21T06:36:37;100795.06;;;1.52;70.27
57048;BME280;42934;54.294;18.598;2023-11-21T06:39:06;100801.09;;;1.48;69.39
57048;BME280;42934;54.294;18.598;2023-11-21T06:41:36;100812.34;;;1.51;69.81
57048;BME280;42934;54.294;18.598;2023-11-21T06:44:06;100809.72;;;1.50;69.78
57048;BME280;42934;54.294;18.598;2023-11-21T06:46:38;100808.00;;;1.47;69.66
57048;BME280;42934;54.294;18.598;2023-11-21T06:49:10;100818.34;;;1.49;69.92
57048;BME280;42934;54.294;18.598;2023-11-21T06:51:40;100833.00;;;1.50;69.53
57048;BME280;42934;54.294;18.598;2023-11-21T06:54:09;100831.28;;;1.49;69.41
57048;BME280;42934;54.294;18.598;2023-11-21T06:56:38;100835.59;;;1.48;69.59
57048;BME280;42934;54.294;18.598;2023-11-21T06:59:07;100839.03;;;1.49;69.25
57048;BME280;42934;54.294;18.598;2023-11-21T07:01:38;100844.22;;;1.49;69.61
57048;BME280;42934;54.294;18.598;2023-11-21T07:04:09;100850.25;;;1.45;69.61
57048;BME280;42934;54.294;18.598;2023-11-21T07:06:38;100851.03;;;1.38;69.77
57048;BME280;42934;54.294;18.598;2023-11-21T07:09:08;100853.59;;;1.33;70.10
57048;BME280;42934;54.294;18.598;2023-11-21T07:11:37;100853.59;;;1.34;69.47
57048;BME280;42934;54.294;18.598;2023-11-21T07:14:10;100863.06;;;1.34;69.41
57048;BME280;42934;54.294;18.598;2023-11-21T07:16:41;100863.03;;;1.28;69.55
57048;BME280;42934;54.294;18.598;2023-11-21T07:19:10;100868.19;;;1.28;69.89
57048;BME280;42934;54.294;18.598;2023-11-21T07:21:40;100857.84;;;1.28;69.35
57048;BME280;42934;54.294;18.598;2023-11-21T07:24:09;100868.25;;;1.32;70.01
57048;BME280;42934;54.294;18.598;2023-11-21T07:26:39;100865.66;;;1.32;69.67
57048;BME280;42934;54.294;18.598;2023-11-21T07:29:08;100873.44;;;1.32;69.62
57048;BME280;42934;54.294;18.598;2023-11-21T07:31:40;100876.91;;;1.38;69.95
57048;BME280;42934;54.294;18.598;2023-11-21T07:34:10;100876.88;;;1.34;70.06
57048;BME280;42934;54.294;18.598;2023-11-21T07:36:40;100878.66;;;1.40;69.69
57048;BME280;42934;54.294;18.598;2023-11-21T07:39:09;100873.53;;;1.45;69.92
57048;BME280;42934;54.294;18.598;2023-11-21T07:41:38;100882.19;;;1.51;69.72
57048;BME280;42934;54.294;18.598;2023-11-21T07:44:12;100889.16;;;1.62;69.07
57048;BME280;42934;54.294;18.598;2023-11-21T07:46:43;100882.25;;;1.61;69.83
57048;BME280;42934;54.294;18.598;2023-11-21T07:49:13;100877.97;;;1.63;69.67
57048;BME280;42934;54.294;18.598;2023-11-21T07:51:44;100878.00;;;1.66;69.12
57048;BME280;42934;54.294;18.598;2023-11-21T07:54:13;100878.03;;;1.72;69.38
57048;BME280;42934;54.294;18.598;2023-11-21T07:56:44;100882.41;;;1.77;69.09
57048;BME280;42934;54.294;18.598;2023-11-21T07:59:13;100878.97;;;1.80;69.27
57048;BME280;42934;54.294;18.598;2023-11-21T08:01:44;100866.91;;;1.88;69.34
57048;BME280;42934;54.294;18.598;2023-11-21T08:04:13;100877.34;;;1.96;69.71
57048;BME280;42934;54.294;18.598;2023-11-21T08:06:43;100878.22;;;2.02;69.27
57048;BME280;42934;54.294;18.598;2023-11-21T08:09:12;100885.16;;;2.03;68.71
57048;BME280;42934;54.294;18.598;2023-11-21T08:11:41;100882.59;;;2.10;69.29
57048;BME280;42934;54.294;18.598;2023-11-21T08:14:10;100886.09;;;2.18;68.37
57048;BME280;42934;54.294;18.598;2023-11-21T08:16:40;100880.03;;;2.13;68.63
57048;BME280;42934;54.294;18.598;2023-11-21T08:19:10;100883.50;;;2.19;69.06
57048;BME280;42934;54.294;18.598;2023-11-21T08:21:40;100886.97;;;2.21;68.80
57048;BME280;42934;54.294;18.598;2023-11-21T08:24:09;100893.91;;;2.28;69.16
57048;BME280;42934;54.294;18.598;2023-11-21T08:26:39;100892.22;;;2.34;68.58
57048;BME280;42934;54.294;18.598;2023-11-21T08:29:08;100896.53;;;2.38;67.88
57048;BME280;42934;54.294;18.598;2023-11-21T08:31:38;100893.94;;;2.33;69.14
57048;BME280;42934;54.294;18.598;2023-11-21T08:34:09;100900.03;;;2.41;70.50
57048;BME280;42934;54.294;18.598;2023-11-21T08:36:40;100906.09;;;2.45;68.62
57048;BME280;42934;54.294;18.598;2023-11-21T08:39:09;100901.81;;;2.53;69.28
57048;BME280;42934;54.294;18.598;2023-11-21T08:41:39;100901.84;;;2.61;68.59
57048;BME280;42934;54.294;18.598;2023-11-21T08:44:09;100907.03;;;2.64;68.30
57048;BME280;42934;54.294;18.598;2023-11-21T08:46:38;100912.25;;;2.68;68.74
57048;BME280;42934;54.294;18.598;2023-11-21T08:49:11;100911.41;;;2.79;68.37
57048;BME280;42934;54.294;18.598;2023-11-21T08:51:41;100915.75;;;2.84;67.56
57048;BME280;42934;54.294;18.598;2023-11-21T08:54:09;100920.91;;;2.81;68.13
57048;BME280;42934;54.294;18.598;2023-11-21T08:56:39;100921.81;;;2.88;69.03
57048;BME280;42934;54.294;18.598;2023-11-21T08:59:08;100926.16;;;2.98;68.44
57048;BME280;42934;54.294;18.598;2023-11-21T09:01:38;100926.16;;;3.06;67.55
57048;BME280;42934;54.294;18.598;2023-11-21T09:04:07;100924.47;;;3.00;67.15
57048;BME280;42934;54.294;18.598;2023-11-21T09:06:38;100934.84;;;3.09;67.65
57048;BME280;42934;54.294;18.598;2023-11-21T09:09:07;100931.41;;;3.12;67.03
57048;BME280;42934;54.294;18.598;2023-11-21T09:11:38;100929.69;;;3.15;67.42
57048;BME280;42934;54.294;18.598;2023-11-21T09:14:07;100938.34;;;3.22;67.36
57048;BME280;42934;54.294;18.598;2023-11-21T09:16:36;100933.16;;;3.22;67.25
57048;BME280;42934;54.294;18.598;2023-11-21T09:19:06;100919.34;;;3.35;67.32
57048;BME280;42934;54.294;18.598;2023-11-21T09:21:37;100934.03;;;3.24;67.60
57048;BME280;42934;54.294;18.598;2023-11-21T09:24:07;100933.16;;;3.44;67.08
57048;BME280;42934;54.294;18.598;2023-11-21T09:26:37;100933.19;;;3.48;66.15
57048;BME280;42934;54.294;18.598;2023-11-21T09:29:06;100944.44;;;3.58;66.73
57048;BME280;42934;54.294;18.598;2023-11-21T09:31:36;100946.16;;;3.63;65.89
57048;BME280;42934;54.294;18.598;2023-11-21T09:34:06;100940.97;;;3.67;65.38
57048;BME280;42934;54.294;18.598;2023-11-21T09:36:37;100946.19;;;3.77;65.45
57048;BME280;42934;54.294;18.598;2023-11-21T09:39:07;100945.31;;;3.77;61.80
57048;BME280;42934;54.294;18.598;2023-11-21T09:41:43;100946.16;;;3.79;61.76
57048;BME280;42934;54.294;18.598;2023-11-21T09:44:16;100948.78;;;3.80;61.73
57048;BME280;42934;54.294;18.598;2023-11-21T09:46:49;100944.47;;;3.85;61.28
57048;BME280;42934;54.294;18.598;2023-11-21T09:49:20;100933.16;;;3.88;61.27
57048;BME280;42934;54.294;18.598;2023-11-21T09:51:55;100934.03;;;3.90;60.42
57048;BME280;42934;54.294;18.598;2023-11-21T09:54:25;100940.09;;;3.94;61.74
57048;BME280;42934;54.294;18.598;2023-11-21T09:56:57;100931.44;;;4.04;62.44
57048;BME280;42934;54.294;18.598;2023-11-21T09:59:30;100933.16;;;4.19;61.70
57048;BME280;42934;54.294;18.598;2023-11-21T10:01:59;100933.09;;;4.26;62.39
57048;BME280;42934;54.294;18.598;2023-11-21T10:04:29;100945.25;;;4.30;61.54
57048;BME280;42934;54.294;18.598;2023-11-21T10:07:00;100941.72;;;4.44;60.82
57048;BME280;42934;54.294;18.598;2023-11-21T10:09:31;100945.25;;;4.41;59.63
57048;BME280;42934;54.294;18.598;2023-11-21T10:12:01;100950.38;;;4.55;60.23
57048;BME280;42934;54.294;18.598;2023-11-21T10:14:31;100941.69;;;4.65;60.50
57048;BME280;42934;54.294;18.598;2023-11-21T10:17:00;100936.41;;;4.76;60.67
57048;BME280;42934;54.294;18.598;2023-11-21T10:19:30;100935.53;;;4.85;60.75
57048;BME280;42934;54.294;18.598;2023-11-21T10:22:02;100941.53;;;4.96;60.26
57048;BME280;42934;54.294;18.598;2023-11-21T10:24:31;100949.28;;;5.05;59.27
57048;BME280;42934;54.294;18.598;2023-11-21T10:27:15;100941.56;;;4.97;59.28
57048;BME280;42934;54.294;18.598;2023-11-21T10:29:44;100955.38;;;5.04;58.33
57048;BME280;42934;54.294;18.598;2023-11-21T10:32:14;100957.16;;;4.97;58.48
57048;BME280;42934;54.294;18.598;2023-11-21T10:34:55;100961.50;;;5.00;58.14
57048;BME280;42934;54.294;18.598;2023-11-21T10:37:25;100969.25;;;5.05;56.88
57048;BME280;42934;54.294;18.598;2023-11-21T10:39:58;100963.28;;;4.89;56.84
57048;BME280;42934;54.294;18.598;2023-11-21T10:42:27;100972.81;;;4.87;58.06
57048;BME280;42934;54.294;18.598;2023-11-21T10:44:56;100967.56;;;4.93;57.08
57048;BME280;42934;54.294;18.598;2023-11-21T10:47:26;100967.47;;;5.11;56.85
57048;BME280;42934;54.294;18.598;2023-11-21T10:49:56;100971.56;;;5.55;55.75
57048;BME280;42934;54.294;18.598;2023-11-21T10:52:28;100972.56;;;6.45;55.31
57048;BME280;42934;54.294;18.598;2023-11-21T10:54:58;100973.06;;;6.79;53.78
57048;BME280;42934;54.294;18.598;2023-11-21T10:57:28;100971.31;;;6.80;54.63
57048;BME280;42934;54.294;18.598;2023-11-21T10:59:57;100977.75;;;7.19;54.22
57048;BME280;42934;54.294;18.598;2023-11-21T11:02:26;100977.97;;;7.64;54.13
57048;BME280;42934;54.294;18.598;2023-11-21T11:05:00;100980.38;;;7.80;54.42
57048;BME280;42934;54.294;18.598;2023-11-21T11:07:31;100990.22;;;7.62;54.02
57048;BME280;42934;54.294;18.598;2023-11-21T11:10:02;100987.16;;;7.91;53.14
57048;BME280;42934;54.294;18.598;2023-11-21T11:12:32;100987.00;;;7.43;51.45
57048;BME280;42934;54.294;18.598;2023-11-21T11:15:01;100993.97;;;7.43;52.96
57048;BME280;42934;54.294;18.598;2023-11-21T11:17:33;100990.41;;;7.50;51.40
57048;BME280;42934;54.294;18.598;2023-11-21T11:20:03;100994.16;;;7.31;52.17
57048;BME280;42934;54.294;18.598;2023-11-21T11:22:40;100990.59;;;7.36;52.29
57048;BME280;42934;54.294;18.598;2023-11-21T11:25:30;100985.72;;;7.10;50.83
57048;BME280;42934;54.294;18.598;2023-11-21T11:28:06;101001.16;;;7.27;51.17
57048;BME280;42934;54.294;18.598;2023-11-21T11:30:52;101005.66;;;7.16;50.77
57048;BME280;42934;54.294;18.598;2023-11-21T11:33:33;101006.00;;;6.87;51.30
57048;BME280;42934;54.294;18.598;2023-11-21T11:36:10;101004.38;;;6.76;51.70
57048;BME280;42934;54.294;18.598;2023-11-21T11:38:46;100994.09;;;6.66;50.58
57048;BME280;42934;54.294;18.598;2023-11-21T11:41:25;101004.63;;;6.55;51.42
57048;BME280;42934;54.294;18.598;2023-11-21T11:43:55;101010.84;;;6.42;51.94
57048;BME280;42934;54.294;18.598;2023-11-21T11:46:40;101002.81;;;6.62;51.69
57048;BME280;42934;54.294;18.598;2023-11-21T11:49:11;100994.94;;;6.68;50.98
57048;BME280;42934;54.294;18.598;2023-11-21T11:54:56;101005.97;;;6.91;50.32
57048;BME280;42934;54.294;18.598;2023-11-21T11:57:25;100999.75;;;7.01;50.64
57048;BME280;42934;54.294;18.598;2023-11-21T12:00:12;101011.03;;;7.02;49.97
57048;BME280;42934;54.294;18.598;2023-11-21T12:02:46;101010.03;;;7.14;49.50
57048;BME280;42934;54.294;18.598;2023-11-21T12:05:17;101011.13;;;6.96;49.88
57048;BME280;42934;54.294;18.598;2023-11-21T12:07:49;101014.81;;;6.76;50.73
57048;BME280;42934;54.294;18.598;2023-11-21T12:10:23;101022.72;;;6.70;51.28
57048;BME280;42934;54.294;18.598;2023-11-21T12:12:57;101020.25;;;6.59;51.16
57048;BME280;42934;54.294;18.598;2023-11-21T12:15:27;101019.28;;;6.68;51.74
57048;BME280;42934;54.294;18.598;2023-11-21T12:17:58;100993.50;;;6.37;50.72
57048;BME280;42934;54.294;18.598;2023-11-21T12:20:30;101023.25;;;6.18;51.22
57048;BME280;42934;54.294;18.598;2023-11-21T12:23:00;101029.44;;;6.06;51.01
57048;BME280;42934;54.294;18.598;2023-11-21T12:25:32;101021.88;;;5.59;51.26
57048;BME280;42934;54.294;18.598;2023-11-21T12:28:03;101028.78;;;5.69;51.51
57048;BME280;42934;54.294;18.598;2023-11-21T12:30:35;101025.34;;;5.64;52.02
57048;BME280;42934;54.294;18.598;2023-11-21T12:33:06;101033.25;;;5.50;53.00
57048;BME280;42934;54.294;18.598;2023-11-21T12:35:38;101039.34;;;5.46;52.27
57048;BME280;42934;54.294;18.598;2023-11-21T12:38:08;101042.88;;;5.36;53.20
57048;BME280;42934;54.294;18.598;2023-11-21T12:40:39;101051.59;;;5.24;52.48
57048;BME280;42934;54.294;18.598;2023-11-21T12:43:08;101049.94;;;5.09;53.21
57048;BME280;42934;54.294;18.598;2023-11-21T12:45:38;101043.00;;;5.02;53.03
57048;BME280;42934;54.294;18.598;2023-11-21T12:48:07;101051.72;;;4.92;53.75
57048;BME280;42934;54.294;18.598;2023-11-21T12:50:40;101049.97;;;4.91;53.76
57048;BME280;42934;54.294;18.598;2023-11-21T12:53:10;101056.06;;;4.84;53.62
57048;BME280;42934;54.294;18.598;2023-11-21T12:55:44;101063.06;;;4.66;53.82
57048;BME280;42934;54.294;18.598;2023-11-21T12:58:19;101063.06;;;4.63;54.29
57048;BME280;42934;54.294;18.598;2023-11-21T13:00:51;101064.81;;;4.60;54.42
57048;BME280;42934;54.294;18.598;2023-11-21T13:03:22;101064.81;;;4.50;53.89
57048;BME280;42934;54.294;18.598;2023-11-21T13:05:55;101069.16;;;4.45;54.55
57048;BME280;42934;54.294;18.598;2023-11-21T13:08:27;101076.06;;;4.46;54.15
57048;BME280;42934;54.294;18.598;2023-11-21T13:11:00;101080.44;;;4.47;54.03